Terminal Aerodrome Forecast
Issued by NWS

Home | Current Version | Previous Version | Text Only | Print | Product List | Glossary Off
Versions: 1 2 3 4 5 6 7 8 9 10 11 12 13 14 15 16 17 18 19 20 21 22 23 24 25 26 27 28

000
FTUS43 KBIS 110637 AAA
TAFJMS
TAF AMD
KJMS 110637Z 1107/1206 29014KT P6SM FEW090 BKN120 WS020/30045KT
     FM110800 31021G30KT 6SM -RASN BKN020
     FM111000 31022G31KT 5SM -SN OVC020
     FM111400 33023G32KT P6SM VCSH OVC015
     FM112200 34017KT P6SM SCT030=

USA.gov is the U.S. government's official web portal to all federal, state and local government web resources and services.